Cassoday, Kansas
Current Conditions -  °F | °C
As of 7:35 PM on Friday 28 Nov 2014 (Local Time) from KEQA Reporting Station
Clear Clear  
Wind Chill: 55°   Ceiling: Unl
Heat Index: 55°   Visibility: 10mi
Dew Point: 37°   Wind: 15mph
Humidity: 51%   Direction: 210°SSW
Pressure: 29.8"   Gusts: NA
Location:  38.04°N, 96.64°W
Report Text: KEQA 290135Z AUTO 21013KT 10SM CLR 13/03 A2980 RMK AO2
Loading
Personal Weather Stations






























Interactive Weather Map New forecast layout! Learn more

10-Day Weather Forecast

Advertisements
Track Severe Weather on mobile